createdAt,value
2019-05-21T00:01:07.775Z,96164.52
2019-05-21T00:11:08.989Z,96156.45
2019-05-21T00:21:10.440Z,96160.98
2019-05-21T00:31:48.877Z,96171.30
2019-05-21T00:41:59.343Z,96174.19
2019-05-21T00:52:08.206Z,96170.75
2019-05-21T01:02:03.586Z,96183.17
2019-05-21T01:12:04.740Z,96178.73
2019-05-21T01:22:05.854Z,96182.22
2019-05-21T01:32:07.003Z,96185.09
2019-05-21T01:42:08.231Z,96189.30
2019-05-21T01:52:09.310Z,96197.08
2019-05-21T02:02:13.301Z,96194.45
2019-05-21T02:12:14.339Z,96201.23
2019-05-21T02:22:15.456Z,96211.44
2019-05-21T02:32:16.610Z,96222.84
2019-05-21T02:42:17.636Z,96219.68
2019-05-21T02:52:19.087Z,96230.28
2019-05-21T03:02:22.066Z,96234.91
2019-05-21T03:12:23.221Z,96239.29
2019-05-21T03:22:24.372Z,96241.70
2019-05-21T03:32:25.515Z,96242.48
2019-05-21T03:42:27.515Z,96249.19
2019-05-21T03:52:28.582Z,96253.27
2019-05-21T04:02:29.641Z,96255.14
2019-05-21T04:12:30.646Z,96268.29
2019-05-21T04:22:31.776Z,96279.00
2019-05-21T04:32:32.833Z,96284.45
2019-05-21T04:42:33.868Z,96294.23
2019-05-21T04:52:35.105Z,96299.38
2019-05-21T05:02:36.379Z,96300.38
2019-05-21T05:12:37.540Z,96313.97
2019-05-21T05:22:38.564Z,96322.02
2019-05-21T05:32:39.735Z,96331.31
2019-05-21T05:42:40.839Z,96338.82
2019-05-21T05:52:42.001Z,96348.17
2019-05-21T06:02:43.042Z,96351.83
2019-05-21T06:12:44.278Z,96361.75
2019-05-21T06:22:45.318Z,96378.50
2019-05-21T06:32:46.357Z,96391.74
2019-05-21T06:42:47.401Z,96406.87
2019-05-21T06:52:48.565Z,96415.56
2019-05-21T07:02:49.698Z,96429.84
2019-05-21T07:12:50.829Z,96437.92
2019-05-21T07:22:52.056Z,96443.47
2019-05-21T07:32:53.272Z,96469.42
2019-05-21T07:42:54.259Z,96480.19
2019-05-21T07:52:55.596Z,96490.89
2019-05-21T08:02:57.168Z,96481.25
2019-05-21T08:12:58.397Z,96497.88
2019-05-21T08:22:59.559Z,96504.84
2019-05-21T08:33:00.588Z,96513.69
2019-05-21T08:43:01.836Z,96516.64
2019-05-21T08:53:03.305Z,96528.31
2019-05-21T09:03:04.558Z,96535.42
2019-05-21T09:13:05.702Z,96539.52
2019-05-21T09:23:06.930Z,96533.66
2019-05-21T09:33:08.148Z,96542.70
2019-05-21T09:43:09.116Z,96547.41
2019-05-21T09:53:10.396Z,96555.56
2019-05-21T10:03:16.427Z,96550.74
2019-05-21T10:13:17.659Z,96573.25
2019-05-21T10:23:18.810Z,96572.06
2019-05-21T10:33:19.863Z,96582.03
2019-05-21T10:43:20.976Z,96588.88
2019-05-21T10:53:23.107Z,96591.27
2019-05-21T11:03:43.996Z,96592.97
2019-05-21T11:13:45.131Z,96608.20
2019-05-21T11:23:46.214Z,96617.16
2019-05-21T11:33:47.456Z,96609.95
2019-05-21T11:43:48.708Z,96618.57
2019-05-21T11:53:50.203Z,96633.64
2019-05-21T12:03:51.459Z,96629.69
2019-05-21T12:13:52.562Z,96638.11
2019-05-21T12:23:53.594Z,96648.52
2019-05-21T12:33:54.748Z,96639.67
2019-05-21T12:43:55.769Z,96646.36
2019-05-21T12:53:57.207Z,96650.67
2019-05-21T13:03:58.426Z,96667.28
2019-05-21T13:13:59.442Z,96667.90
2019-05-21T13:24:00.490Z,96684.49
2019-05-21T13:34:01.655Z,96693.53
2019-05-21T13:44:03.262Z,96703.97
2019-05-21T13:54:04.530Z,96703.61
2019-05-21T14:04:05.689Z,96715.53
2019-05-21T14:14:07.074Z,96724.73
2019-05-21T14:24:09.249Z,96733.52
2019-05-21T14:34:10.544Z,96735.64
2019-05-21T14:44:11.690Z,96758.45
2019-05-21T14:54:26.263Z,96776.05
2019-05-21T15:04:17.699Z,96776.05
2019-05-21T15:14:19.054Z,96782.23
2019-05-21T15:24:20.261Z,96794.16
2019-05-21T15:34:21.572Z,96800.66
2019-05-21T15:44:22.682Z,96812.45
2019-05-21T15:54:24.146Z,96819.38
2019-05-21T16:04:25.867Z,96828.02
2019-05-21T16:14:26.902Z,96851.90
2019-05-21T16:24:27.965Z,96857.81
2019-05-21T16:34:31.877Z,96864.22
2019-05-21T16:44:32.499Z,96875.91
2019-05-21T16:54:33.683Z,96885.34
2019-05-21T17:04:35.016Z,96898.95
2019-05-21T17:14:36.204Z,96901.41
2019-05-21T17:24:37.521Z,96916.81
2019-05-21T17:34:38.755Z,96927.53
2019-05-21T17:44:40.266Z,96936.92
2019-05-21T17:54:55.559Z,96946.31
2019-05-21T18:04:44.661Z,96958.21
2019-05-21T18:14:46.753Z,96973.20
2019-05-21T18:24:48.867Z,96983.53
2019-05-21T18:34:50.959Z,97004.53
2019-05-21T18:44:53.287Z,97013.81
2019-05-21T18:54:54.622Z,97031.31
2019-05-21T19:04:55.729Z,97048.67
2019-05-21T19:14:57.139Z,97063.52
2019-05-21T19:24:58.408Z,97084.27
2019-05-21T19:34:59.681Z,97098.47
2019-05-21T19:45:00.937Z,97115.48
2019-05-21T19:55:05.191Z,97132.55
2019-05-21T20:05:08.049Z,97141.03
2019-05-21T20:15:09.902Z,97158.11
2019-05-21T20:25:12.748Z,97160.10
2019-05-21T20:35:16.113Z,97171.26
2019-05-21T20:45:20.486Z,97169.66
2019-05-21T20:55:21.958Z,97178.94
2019-05-21T21:05:23.687Z,97188.96
2019-05-21T21:15:25.566Z,97192.92
2019-05-21T21:25:28.025Z,97198.92
2019-05-21T21:35:29.385Z,97205.09
2019-05-21T21:45:31.532Z,97210.30
2019-05-21T21:55:32.960Z,97215.98
2019-05-21T22:05:35.021Z,97224.75
2019-05-21T22:15:36.783Z,97230.05
2019-05-21T22:25:38.133Z,97227.18
2019-05-21T22:35:39.480Z,97228.13
2019-05-21T22:45:40.685Z,97233.25
2019-05-21T22:55:42.754Z,97239.12
2019-05-21T23:05:43.979Z,97245.23
2019-05-21T23:15:46.992Z,97246.89
2019-05-21T23:25:50.044Z,97249.53
2019-05-21T23:35:53.007Z,97249.53
2019-05-21T23:45:54.217Z,97257.48
2019-05-21T23:55:55.736Z,97258.29
